CheckWX is a tool to help pilots better visualize weather data.  It is not intended as a substitute for an official pre-flight weather briefing.

13:12:23 UTC

KHDC TAF
Hammond Northshore Regional Airport
Hammond, Louisiana, USA
KHDC 131151Z 1312/1412 VRB03KT P6SM SKC FM141000 VRB03KT P6SM OVC080

Nov-13@
12:00 UTC

Nov-13 @ 12:00 UTC

Nov-14@
10:00 UTC

Nov-14 @ 10:00 UTC

KHDC 131151Z 1312/1412 VRB03KT P6SM SKC
Wind
  • Variable at 3 KTS
Cloud Levels
  • Clear skies

Nov-14@
10:00 UTC

Nov-14 @ 10:00 UTC

Nov-14@
12:00 UTC

Nov-14 @ 12:00 UTC

FM141000 VRB03KT P6SM OVC080

From

From Standard forecast or significant change

Wind
  • Variable at 3 KTS
Cloud Levels
  • Overcast at 8,000' AGL